createdAt,value
2022-08-23T00:02:23.705Z,22.35
2022-08-23T00:05:07.701Z,22.37
2022-08-23T00:07:44.002Z,22.42
2022-08-23T00:10:16.753Z,22.46
2022-08-23T00:12:46.416Z,22.43
2022-08-23T00:15:19.045Z,22.40
2022-08-23T00:17:47.835Z,22.33
2022-08-23T00:20:20.288Z,22.31
2022-08-23T00:22:48.069Z,22.24
2022-08-23T00:25:16.000Z,22.26
2022-08-23T00:27:44.525Z,22.26
2022-08-23T00:30:14.825Z,22.24
2022-08-23T00:32:43.788Z,22.25
2022-08-23T00:35:26.628Z,22.21
2022-08-23T00:38:31.616Z,22.14
2022-08-23T00:40:53.186Z,22.11
2022-08-23T00:43:49.321Z,22.15
2022-08-23T00:47:05.625Z,22.09
2022-08-23T00:49:36.119Z,22.12
2022-08-23T00:52:35.218Z,22.11
2022-08-23T00:55:02.856Z,22.12
2022-08-23T00:57:32.805Z,22.09
2022-08-23T01:00:00.557Z,22.03
2022-08-23T01:02:27.885Z,21.99
2022-08-23T01:04:59.474Z,21.94
2022-08-23T01:07:59.965Z,21.88
2022-08-23T01:10:31.304Z,21.90
2022-08-23T01:13:13.463Z,21.87
2022-08-23T01:15:57.944Z,21.83
2022-08-23T01:18:31.032Z,21.83
2022-08-23T01:21:38.476Z,21.83
2022-08-23T01:24:10.475Z,21.77
2022-08-23T01:26:52.130Z,21.73
2022-08-23T01:29:19.512Z,21.68
2022-08-23T01:31:46.835Z,21.66
2022-08-23T01:34:16.245Z,21.63
2022-08-23T01:36:45.648Z,21.58
2022-08-23T01:39:13.026Z,21.51
2022-08-23T01:41:40.763Z,21.54
2022-08-23T01:44:09.419Z,21.56
2022-08-23T01:46:37.920Z,21.50
2022-08-23T01:49:08.442Z,21.42
2022-08-23T01:51:37.451Z,21.38
2022-08-23T01:54:05.541Z,21.35
2022-08-23T01:56:38.231Z,21.31
2022-08-23T01:59:12.378Z,21.25
2022-08-23T02:01:59.009Z,21.21
2022-08-23T02:04:27.643Z,21.16
2022-08-23T02:06:55.311Z,21.12
2022-08-23T02:09:25.747Z,21.10
2022-08-23T02:11:56.154Z,21.09
2022-08-23T02:14:24.293Z,21.12
2022-08-23T02:17:03.202Z,21.11
2022-08-23T02:19:35.450Z,21.14
2022-08-23T02:22:06.112Z,21.14
2022-08-23T02:24:34.428Z,21.13
2022-08-23T02:27:05.574Z,21.10
2022-08-23T02:29:39.419Z,21.08
2022-08-23T02:32:10.556Z,21.03
2022-08-23T02:34:40.536Z,20.98
2022-08-23T02:37:11.893Z,20.90
2022-08-23T02:39:41.016Z,20.88
2022-08-23T02:42:11.729Z,20.84
2022-08-23T02:44:42.112Z,20.78
2022-08-23T02:47:11.889Z,20.73
2022-08-23T02:49:42.512Z,20.62
2022-08-23T02:52:09.914Z,20.57
2022-08-23T02:54:37.805Z,20.51
2022-08-23T02:57:06.604Z,20.47
2022-08-23T02:59:35.282Z,20.44
2022-08-23T03:02:03.232Z,20.40
2022-08-23T03:04:38.936Z,20.40
2022-08-23T03:07:06.430Z,20.32
2022-08-23T03:09:34.902Z,20.26
2022-08-23T03:12:02.338Z,20.27
2022-08-23T03:14:32.658Z,20.23
2022-08-23T03:17:01.462Z,20.17
2022-08-23T03:19:28.865Z,20.20
2022-08-23T03:21:56.201Z,20.15
2022-08-23T03:24:23.621Z,20.11
2022-08-23T03:26:51.355Z,20.02
2022-08-23T03:29:19.649Z,19.93
2022-08-23T03:32:01.696Z,19.82
2022-08-23T03:34:32.355Z,19.82
2022-08-23T03:36:59.698Z,19.85
2022-08-23T03:39:27.464Z,19.89
2022-08-23T03:41:56.044Z,19.90
2022-08-23T03:44:23.506Z,19.85
2022-08-23T03:46:51.553Z,19.89
2022-08-23T03:49:19.357Z,19.88
2022-08-23T03:51:54.832Z,19.86
2022-08-23T03:54:22.953Z,19.93
2022-08-23T03:57:00.386Z,19.99
2022-08-23T03:59:33.719Z,19.90
2022-08-23T04:02:01.694Z,19.81
2022-08-23T04:04:30.725Z,19.80
2022-08-23T04:07:22.926Z,19.75
2022-08-23T04:09:55.284Z,19.77
2022-08-23T04:12:24.171Z,19.68
2022-08-23T04:14:52.377Z,19.68
2022-08-23T04:17:21.043Z,19.64
2022-08-23T04:19:49.428Z,19.66
2022-08-23T04:22:19.424Z,19.73
2022-08-23T04:24:48.410Z,19.83
2022-08-23T04:27:17.012Z,19.80
2022-08-23T04:29:45.537Z,19.76
2022-08-23T04:32:14.572Z,19.66
2022-08-23T04:34:54.444Z,19.66
2022-08-23T04:37:22.009Z,19.62
2022-08-23T04:40:08.101Z,19.62
2022-08-23T04:42:41.888Z,19.64
2022-08-23T04:45:10.429Z,19.60
2022-08-23T04:47:41.359Z,19.56
2022-08-23T04:50:10.117Z,19.62
2022-08-23T04:52:50.211Z,19.60
2022-08-23T04:55:17.856Z,19.54
2022-08-23T04:57:49.717Z,19.56
2022-08-23T05:00:27.954Z,19.63
2022-08-23T05:02:57.530Z,19.68
2022-08-23T05:05:27.561Z,19.73
2022-08-23T05:07:55.598Z,19.78
2022-08-23T05:10:23.435Z,19.80
2022-08-23T05:12:53.366Z,19.81
2022-08-23T05:15:22.535Z,19.88
2022-08-23T05:17:57.651Z,19.94
2022-08-23T05:20:25.558Z,19.88
2022-08-23T05:22:52.893Z,19.83
2022-08-23T05:25:48.787Z,19.92
2022-08-23T05:28:34.570Z,20.00
2022-08-23T05:31:17.746Z,20.01
2022-08-23T05:33:52.801Z,20.05
2022-08-23T05:36:48.335Z,20.14
2022-08-23T05:39:32.822Z,20.23
2022-08-23T05:42:09.842Z,20.32
2022-08-23T05:44:37.904Z,20.37
2022-08-23T05:47:11.546Z,20.43
2022-08-23T05:49:53.236Z,20.64
2022-08-23T05:52:21.390Z,20.81
2022-08-23T05:54:48.609Z,20.95
2022-08-23T05:57:47.649Z,21.15
2022-08-23T06:00:15.624Z,21.36
2022-08-23T06:02:55.120Z,21.52
2022-08-23T06:05:22.578Z,21.62
2022-08-23T06:07:51.818Z,21.73
2022-08-23T06:10:21.962Z,21.87
2022-08-23T06:12:56.948Z,21.90
2022-08-23T06:15:24.366Z,22.00
2022-08-23T06:17:52.474Z,22.02
2022-08-23T06:20:19.868Z,22.02
2022-08-23T06:23:07.911Z,22.12
2022-08-23T06:25:39.753Z,22.16
2022-08-23T06:28:11.173Z,22.24
2022-08-23T06:30:40.180Z,22.23
2022-08-23T06:33:27.227Z,22.24
2022-08-23T06:36:15.094Z,22.32
2022-08-23T06:39:18.801Z,22.54
2022-08-23T06:42:36.442Z,22.53
2022-08-23T06:45:04.016Z,22.68
2022-08-23T06:47:40.256Z,22.76
2022-08-23T06:50:09.311Z,22.85
2022-08-23T06:52:55.314Z,22.92
2022-08-23T06:55:49.428Z,22.98
2022-08-23T06:58:22.314Z,22.99
2022-08-23T07:01:44.813Z,23.07
2022-08-23T07:04:38.124Z,23.12
2022-08-23T07:07:37.659Z,23.21
2022-08-23T07:10:12.116Z,23.20
2022-08-23T07:12:43.320Z,23.25
2022-08-23T07:15:12.928Z,23.30
2022-08-23T07:17:43.528Z,23.31
2022-08-23T07:20:11.296Z,23.31
2022-08-23T07:22:41.338Z,23.47
2022-08-23T07:25:10.112Z,23.43
2022-08-23T07:27:39.593Z,23.49
2022-08-23T07:30:09.425Z,23.57
2022-08-23T07:32:40.484Z,23.65
2022-08-23T07:35:25.121Z,23.64
2022-08-23T07:37:57.695Z,23.69
2022-08-23T07:40:30.177Z,23.69
2022-08-23T07:43:03.193Z,23.73
2022-08-23T07:45:31.470Z,23.77
2022-08-23T07:48:03.149Z,23.80
2022-08-23T07:50:36.765Z,23.83
2022-08-23T07:53:17.196Z,23.96
2022-08-23T07:56:16.096Z,23.99
2022-08-23T07:59:15.719Z,24.08
2022-08-23T08:02:15.516Z,24.18
2022-08-23T08:04:43.112Z,24.10
2022-08-23T08:07:19.341Z,24.15
2022-08-23T08:09:54.605Z,24.21
2022-08-23T08:12:23.234Z,24.24
2022-08-23T08:14:53.477Z,24.31
2022-08-23T08:17:27.564Z,24.31
2022-08-23T08:20:23.049Z,24.39
2022-08-23T08:23:31.646Z,24.70
2022-08-23T08:26:29.911Z,24.57
2022-08-23T08:28:58.053Z,24.65
2022-08-23T08:31:27.411Z,24.71
2022-08-23T08:33:55.657Z,24.78
2022-08-23T08:36:41.161Z,24.86
2022-08-23T08:39:22.420Z,24.99
2022-08-23T08:42:27.789Z,25.12
2022-08-23T08:45:10.321Z,25.11
2022-08-23T08:47:52.406Z,25.34
2022-08-23T08:50:37.648Z,25.34
2022-08-23T08:53:23.953Z,25.35
2022-08-23T08:56:56.990Z,25.41
2022-08-23T08:59:48.098Z,25.49
2022-08-23T09:02:32.464Z,25.64
2022-08-23T09:05:24.601Z,25.64
2022-08-23T09:08:35.711Z,25.59
2022-08-23T09:12:08.625Z,25.71
2022-08-23T09:15:23.941Z,25.78
2022-08-23T09:18:04.768Z,25.82
2022-08-23T09:20:35.572Z,25.80
2022-08-23T09:23:17.157Z,25.91
2022-08-23T09:26:24.129Z,25.74
2022-08-23T09:29:18.748Z,26.04
2022-08-23T09:32:02.604Z,26.33
2022-08-23T09:34:35.021Z,26.26
2022-08-23T09:37:24.533Z,26.35
2022-08-23T09:40:28.089Z,26.48
2022-08-23T09:43:23.656Z,26.40
2022-08-23T09:45:51.105Z,26.48
2022-08-23T09:48:44.105Z,26.64
2022-08-23T09:51:32.436Z,26.71
2022-08-23T09:54:20.410Z,26.72
2022-08-23T09:56:58.736Z,26.92
2022-08-23T09:59:26.844Z,27.01
2022-08-23T10:02:02.049Z,26.98
2022-08-23T10:05:20.263Z,27.16
2022-08-23T10:08:01.680Z,27.06
2022-08-23T10:10:52.656Z,27.17
2022-08-23T10:13:27.850Z,27.13
2022-08-23T10:16:41.765Z,27.34
2022-08-23T10:19:48.812Z,27.65
2022-08-23T10:22:26.403Z,27.57
2022-08-23T10:25:38.308Z,27.79
2022-08-23T10:29:03.998Z,27.84
2022-08-23T10:31:53.244Z,27.93
2022-08-23T10:34:50.440Z,27.93
2022-08-23T10:38:19.548Z,28.11
2022-08-23T10:41:18.530Z,28.15
2022-08-23T10:44:00.585Z,28.26
2022-08-23T10:46:31.477Z,28.36
2022-08-23T10:49:01.609Z,28.52
2022-08-23T10:51:49.035Z,28.65
2022-08-23T10:54:48.787Z,28.71
2022-08-23T10:57:37.481Z,28.83
2022-08-23T11:00:21.820Z,28.83
2022-08-23T11:03:05.748Z,28.91
2022-08-23T11:05:38.724Z,29.07
2022-08-23T11:08:36.642Z,29.14
2022-08-23T11:11:44.958Z,29.14
2022-08-23T11:14:45.811Z,29.89
2022-08-23T11:17:42.412Z,30.62
2022-08-23T11:20:13.306Z,30.67
2022-08-23T11:23:00.001Z,31.11
2022-08-23T11:25:27.114Z,31.36
2022-08-23T11:28:25.814Z,31.72
2022-08-23T11:31:24.130Z,32.29
2022-08-23T11:34:30.046Z,32.24
2022-08-23T11:37:20.388Z,31.46
2022-08-23T11:39:58.346Z,31.38
2022-08-23T11:42:40.187Z,31.87
2022-08-23T11:45:46.763Z,32.65
2022-08-23T11:48:40.588Z,32.42
2022-08-23T11:52:10.725Z,31.67
2022-08-23T11:55:09.483Z,31.44
2022-08-23T11:58:13.900Z,30.70
2022-08-23T12:01:10.545Z,30.12
2022-08-23T12:03:57.004Z,30.19
2022-08-23T12:06:50.530Z,30.35
2022-08-23T12:09:24.064Z,30.36
2022-08-23T12:11:57.450Z,30.32
2022-08-23T12:14:42.894Z,30.28
2022-08-23T12:17:12.839Z,30.16
2022-08-23T12:19:53.785Z,30.43
2022-08-23T12:22:52.759Z,30.53
2022-08-23T12:25:22.976Z,30.62
2022-08-23T12:28:07.530Z,30.67
2022-08-23T12:31:18.995Z,30.56
2022-08-23T12:34:15.889Z,30.58
2022-08-23T12:37:28.985Z,30.77
2022-08-23T12:40:02.362Z,30.74
2022-08-23T12:42:38.619Z,30.77
2022-08-23T12:45:13.037Z,30.83
2022-08-23T12:47:43.829Z,30.88
2022-08-23T12:50:15.117Z,30.91
2022-08-23T12:52:42.706Z,30.91
2022-08-23T12:55:20.082Z,30.77
2022-08-23T12:57:56.231Z,30.70
2022-08-23T13:00:43.351Z,30.62
2022-08-23T13:03:44.528Z,31.43
2022-08-23T13:06:20.761Z,32.03
2022-08-23T13:09:33.480Z,32.29
2022-08-23T13:12:02.420Z,31.80
2022-08-23T13:14:33.373Z,31.47
2022-08-23T13:17:22.807Z,31.32
2022-08-23T13:20:01.225Z,32.15
2022-08-23T13:22:37.496Z,33.36
2022-08-23T13:25:28.045Z,34.22
2022-08-23T13:28:02.372Z,35.40
2022-08-23T13:30:37.801Z,36.15
2022-08-23T13:33:08.144Z,34.69
2022-08-23T13:35:49.809Z,34.38
2022-08-23T13:38:32.422Z,34.50
2022-08-23T13:41:31.104Z,35.18
2022-08-23T13:44:08.247Z,37.21
2022-08-23T13:46:47.001Z,36.49
2022-08-23T13:49:20.598Z,34.41
2022-08-23T13:52:17.218Z,35.64
2022-08-23T13:54:50.829Z,37.97
2022-08-23T13:57:22.066Z,38.87
2022-08-23T13:59:58.939Z,39.40
2022-08-23T14:02:26.706Z,39.91
2022-08-23T14:04:54.219Z,39.01
2022-08-23T14:07:21.768Z,38.59
2022-08-23T14:09:53.172Z,39.06
2022-08-23T14:12:28.035Z,39.85
2022-08-23T14:14:57.759Z,40.75
2022-08-23T14:17:26.163Z,40.83
2022-08-23T14:20:31.859Z,40.97
2022-08-23T14:22:41.184Z,40.46
2022-08-23T14:25:10.748Z,40.96
2022-08-23T14:27:42.413Z,41.20
2022-08-23T14:30:23.801Z,42.01
2022-08-23T14:32:58.590Z,41.51
2022-08-23T14:35:26.977Z,41.22
2022-08-23T14:38:04.067Z,40.81
2022-08-23T14:40:33.092Z,41.45
2022-08-23T14:43:00.884Z,42.18
2022-08-23T14:45:28.628Z,42.06
2022-08-23T14:47:55.984Z,42.04
2022-08-23T14:50:23.256Z,42.47
2022-08-23T14:52:50.571Z,41.91
2022-08-23T14:55:20.221Z,42.06
2022-08-23T14:57:51.816Z,42.45
2022-08-23T15:00:19.158Z,42.22
2022-08-23T15:02:48.776Z,40.86
2022-08-23T15:05:17.416Z,41.86
2022-08-23T15:07:45.421Z,40.56
2022-08-23T15:13:20.606Z,43.12
2022-08-23T15:15:50.481Z,42.08
2022-08-23T15:18:19.492Z,41.94
2022-08-23T15:20:47.228Z,41.23
2022-08-23T15:23:14.913Z,41.28
2022-08-23T15:25:45.050Z,41.88
2022-08-23T15:28:16.929Z,41.99
2022-08-23T15:30:46.784Z,42.02
2022-08-23T15:33:14.548Z,42.96
2022-08-23T15:35:52.110Z,42.92
2022-08-23T15:38:23.564Z,42.37
2022-08-23T15:40:54.550Z,42.91
2022-08-23T15:43:23.592Z,42.25
2022-08-23T15:46:07.972Z,42.43
2022-08-23T15:49:13.701Z,42.49
2022-08-23T15:51:41.900Z,43.11
2022-08-23T15:54:10.699Z,43.33
2022-08-23T15:56:50.029Z,43.57
2022-08-23T15:59:19.450Z,43.04
2022-08-23T16:01:47.273Z,42.42
2022-08-23T16:04:14.658Z,43.05
2022-08-23T16:06:42.553Z,43.18
2022-08-23T16:09:20.638Z,43.15
2022-08-23T16:11:48.721Z,42.82
2022-08-23T16:14:16.930Z,42.84
2022-08-23T16:16:46.775Z,42.51
2022-08-23T16:19:14.828Z,43.71
2022-08-23T16:21:45.252Z,43.89
2022-08-23T16:24:12.564Z,42.50
2022-08-23T16:26:43.965Z,42.32
2022-08-23T16:29:17.425Z,43.63
2022-08-23T16:31:46.165Z,43.43
2022-08-23T16:34:18.480Z,43.06
2022-08-23T16:36:59.297Z,41.12
2022-08-23T16:39:28.306Z,41.70
2022-08-23T16:41:57.530Z,41.41
2022-08-23T16:44:24.871Z,42.69
2022-08-23T16:46:52.446Z,42.46
2022-08-23T16:49:22.113Z,42.14
2022-08-23T16:51:49.998Z,42.08
2022-08-23T16:54:19.249Z,42.10
2022-08-23T16:56:46.855Z,41.53
2022-08-23T16:59:14.440Z,41.69
2022-08-23T17:02:05.854Z,41.47
2022-08-23T17:04:38.631Z,40.81
2022-08-23T17:07:07.428Z,40.60
2022-08-23T17:09:34.814Z,40.11
2022-08-23T17:12:03.123Z,40.50
2022-08-23T17:14:30.499Z,40.06
2022-08-23T17:16:57.902Z,40.06
2022-08-23T17:19:25.313Z,39.65
2022-08-23T17:21:52.604Z,39.60
2022-08-23T17:24:19.896Z,38.39
2022-08-23T17:26:47.270Z,38.04
2022-08-23T17:29:14.503Z,35.81
2022-08-23T17:31:43.317Z,34.40
2022-08-23T17:34:10.689Z,33.29
2022-08-23T17:36:47.750Z,32.77
2022-08-23T17:39:22.163Z,32.11
2022-08-23T17:41:49.518Z,31.50
2022-08-23T17:44:17.682Z,30.95
2022-08-23T17:46:46.445Z,30.80
2022-08-23T17:49:16.405Z,30.31
2022-08-23T17:51:44.370Z,30.09
2022-08-23T17:54:16.039Z,29.97
2022-08-23T17:56:50.225Z,29.78
2022-08-23T17:59:20.290Z,29.69
2022-08-23T18:01:47.764Z,29.60
2022-08-23T18:04:15.136Z,29.49
2022-08-23T18:06:42.564Z,29.15
2022-08-23T18:09:10.216Z,29.08
2022-08-23T18:11:37.751Z,28.92
2022-08-23T18:14:05.997Z,28.77
2022-08-23T18:16:35.804Z,28.60
2022-08-23T18:19:06.372Z,28.44
2022-08-23T18:21:40.974Z,28.28
2022-08-23T18:24:09.858Z,28.21
2022-08-23T18:26:56.937Z,28.13
2022-08-23T18:29:24.963Z,27.99
2022-08-23T18:31:52.314Z,27.90
2022-08-23T18:34:20.224Z,27.79
2022-08-23T18:36:47.927Z,27.73
2022-08-23T18:39:17.531Z,27.66
2022-08-23T18:42:05.195Z,27.54
2022-08-23T18:44:32.765Z,27.49
2022-08-23T18:47:02.823Z,27.35
2022-08-23T18:49:33.738Z,27.16
2022-08-23T18:52:02.651Z,27.11
2022-08-23T18:54:33.643Z,27.02
2022-08-23T18:57:01.911Z,26.99
2022-08-23T18:59:29.755Z,26.94
2022-08-23T19:01:57.321Z,26.87
2022-08-23T19:04:24.824Z,26.87
2022-08-23T19:06:54.194Z,26.85
2022-08-23T19:09:22.014Z,26.75
2022-08-23T19:11:50.076Z,26.60
2022-08-23T19:14:17.303Z,26.56
2022-08-23T19:16:48.387Z,26.47
2022-08-23T19:19:18.633Z,26.37
2022-08-23T19:21:46.060Z,26.17
2022-08-23T19:24:13.720Z,26.11
2022-08-23T19:26:44.395Z,26.13
2022-08-23T19:29:11.654Z,26.07
2022-08-23T19:31:43.288Z,26.04
2022-08-23T19:34:11.540Z,26.02
2022-08-23T19:36:48.276Z,25.95
2022-08-23T19:39:19.479Z,25.84
2022-08-23T19:41:48.591Z,25.76
2022-08-23T19:44:17.647Z,25.76
2022-08-23T19:46:45.631Z,25.66
2022-08-23T19:49:15.676Z,25.66
2022-08-23T19:51:44.126Z,25.64
2022-08-23T19:54:12.771Z,25.61
2022-08-23T19:56:57.486Z,25.59
2022-08-23T19:59:39.101Z,25.51
2022-08-23T20:02:09.588Z,25.37
2022-08-23T20:04:37.054Z,25.27
2022-08-23T20:07:05.667Z,25.17
2022-08-23T20:09:33.861Z,25.14
2022-08-23T20:12:02.238Z,25.15
2022-08-23T20:14:33.062Z,25.09
2022-08-23T20:17:04.291Z,24.96
2022-08-23T20:19:31.574Z,24.83
2022-08-23T20:22:17.382Z,24.79
2022-08-23T20:24:52.857Z,24.74
2022-08-23T20:27:25.435Z,24.67
2022-08-23T20:30:00.013Z,24.63
2022-08-23T20:32:28.957Z,24.55
2022-08-23T20:34:56.196Z,24.57
2022-08-23T20:37:23.409Z,24.51
2022-08-23T20:39:50.895Z,24.46
2022-08-23T20:42:18.679Z,24.37
2022-08-23T20:44:46.116Z,24.35
2022-08-23T20:47:13.453Z,24.25
2022-08-23T20:49:40.936Z,24.26
2022-08-23T20:52:08.464Z,24.24
2022-08-23T20:54:35.996Z,24.25
2022-08-23T20:57:03.572Z,24.18
2022-08-23T20:59:30.947Z,24.21
2022-08-23T21:01:59.178Z,24.17
2022-08-23T21:04:30.169Z,24.06
2022-08-23T21:06:58.573Z,24.01
2022-08-23T21:09:29.451Z,23.97
2022-08-23T21:11:57.626Z,23.91
2022-08-23T21:14:25.373Z,23.97
2022-08-23T21:16:52.654Z,23.97
2022-08-23T21:19:19.937Z,23.90
2022-08-23T21:21:47.376Z,23.89
2022-08-23T21:24:15.296Z,23.89
2022-08-23T21:26:42.702Z,23.82
2022-08-23T21:29:11.098Z,23.76
2022-08-23T21:31:39.553Z,23.72
2022-08-23T21:34:08.187Z,23.69
2022-08-23T21:36:36.990Z,23.65
2022-08-23T21:39:05.673Z,23.61
2022-08-23T21:41:45.883Z,23.63
2022-08-23T21:44:20.914Z,23.55
2022-08-23T21:46:48.571Z,23.50
2022-08-23T21:49:18.039Z,23.50
2022-08-23T21:51:46.558Z,23.51
2022-08-23T21:54:16.014Z,23.54
2022-08-23T21:56:44.065Z,23.53
2022-08-23T21:59:17.128Z,23.53
2022-08-23T22:01:46.382Z,23.48
2022-08-23T22:04:15.540Z,23.49
2022-08-23T22:06:46.588Z,23.55
2022-08-23T22:09:20.805Z,23.64
2022-08-23T22:11:55.165Z,23.68
2022-08-23T22:14:30.452Z,23.73
2022-08-23T22:17:00.178Z,23.67
2022-08-23T22:19:28.209Z,23.62
2022-08-23T22:21:55.524Z,23.59
2022-08-23T22:24:25.829Z,23.63
2022-08-23T22:26:54.956Z,23.62
2022-08-23T22:29:23.235Z,23.49
2022-08-23T22:31:50.778Z,23.43
2022-08-23T22:34:18.201Z,23.30
2022-08-23T22:36:46.196Z,23.23
2022-08-23T22:39:18.977Z,23.29
2022-08-23T22:41:46.165Z,23.25
2022-08-23T22:44:13.807Z,23.24
2022-08-23T22:46:41.193Z,23.25
2022-08-23T22:49:09.340Z,23.24
2022-08-23T22:51:37.297Z,23.18
2022-08-23T22:54:09.792Z,23.09
2022-08-23T22:56:45.124Z,23.02
2022-08-23T22:59:13.944Z,23.00
2022-08-23T23:01:52.977Z,22.93
2022-08-23T23:04:26.268Z,22.98
2022-08-23T23:06:55.217Z,22.92
2022-08-23T23:09:22.776Z,22.86
2022-08-23T23:11:53.521Z,22.83
2022-08-23T23:14:22.433Z,22.74
2022-08-23T23:16:50.781Z,22.66
2022-08-23T23:19:38.649Z,22.61
2022-08-23T23:22:09.133Z,22.54
2022-08-23T23:24:39.995Z,22.56
2022-08-23T23:27:08.220Z,22.51
2022-08-23T23:29:36.526Z,22.48
2022-08-23T23:32:05.558Z,22.44
2022-08-23T23:34:32.949Z,22.42
2022-08-23T23:37:00.224Z,22.42
2022-08-23T23:39:28.392Z,22.41
2022-08-23T23:41:56.255Z,22.42
2022-08-23T23:44:29.156Z,22.40
2022-08-23T23:47:01.420Z,22.34
2022-08-23T23:49:32.080Z,22.36
2022-08-23T23:52:04.763Z,22.35
2022-08-23T23:54:35.380Z,22.28
2022-08-23T23:57:05.570Z,22.22
2022-08-23T23:59:33.226Z,22.19
